CheckWX is a tool to help pilots better visualize weather data.  It is not intended as a substitute for an official pre-flight weather briefing.

13:20:06 UTC

KFYE METAR
Fayette County Airport
Somerville, Tennessee, USA
Current

25 mins ago

KFYE 221255Z AUTO VRB04KT 4SM BR OVC005 08/07 A3014 RMK A01 P0008
Observed
Feb-22 @ 12:55 UTC
Wind
  • Variable at 4 KTS
Visibility
4 SM
Flight Rules
IFR
Conditions
Mist
Cloud Levels
  • Overcast at 500' AGL
Temperature
C / 46°F
Dewpoint
C / 45°F
Humidity
93%
Altimeter
30.14" Hg
Pressure
1020.62 hPa
Current Rain
0.08"
Previous

45 mins ago

KFYE 221235Z AUTO VRB04KT 5SM BR OVC004 08/07 A3015 RMK A01
Observed
Feb-22 @ 12:35 UTC
Wind
  • Variable at 4 KTS
Visibility
5 SM
Flight Rules
LIFR
Conditions
Mist
Cloud Levels
  • Overcast at 400' AGL
Temperature
C / 46°F
Dewpoint
C / 45°F
Humidity
93%
Altimeter
30.15" Hg
Pressure
1021.02 hPa
Previous

1 hour ago

KFYE 221215Z AUTO 02004KT 5SM BR OVC004 08/07 A3014 RMK A01
Observed
Feb-22 @ 12:15 UTC
Wind
  • 020° at 4 KTS
Visibility
5 SM
Flight Rules
LIFR
Conditions
Mist
Cloud Levels
  • Overcast at 400' AGL
Temperature
C / 46°F
Dewpoint
C / 45°F
Humidity
93%
Altimeter
30.14" Hg
Pressure
1020.62 hPa